Time;durP1;ratioP1;P1;durP2;ratioP2;P2;SDS_P1;SDS_P2;PMS_P1;PMS_P2;Temp;Humidity;BMP_temperature;BMP_pressure;BME280_temperature;BME280_humidity;BME280_pressure;Samples;Min_cycle;Max_cycle;Signal;HPM_P1;HPM_P2
2021/09/19 00:00:45;;;;;;;4.72;2.70;;;15.60;99.90;;;;;;5074821;28;20033;-69
2021/09/19 00:03:10;;;;;;;3.10;2.80;;;15.60;99.90;;;;;;5073661;28;20068;-70
2021/09/19 00:05:36;;;;;;;4.03;2.55;;;15.70;99.90;;;;;;5074109;28;20032;-69
2021/09/19 00:08:02;;;;;;;2.97;2.65;;;15.60;99.90;;;;;;5074793;28;20029;-70
2021/09/19 00:10:28;;;;;;;5.88;2.40;;;15.60;99.90;;;;;;5074321;28;20033;-70
2021/09/19 00:12:53;;;;;;;3.47;2.83;;;15.60;99.90;;;;;;5074603;28;20080;-70
2021/09/19 00:15:19;;;;;;;4.30;2.85;;;15.60;99.90;;;;;;5073451;28;20048;-70
2021/09/19 00:17:46;;;;;;;4.70;3.08;;;15.60;99.90;;;;;;5074830;28;20045;-70
2021/09/19 00:20:13;;;;;;;5.10;3.28;;;15.60;99.90;;;;;;5074027;28;20519;-70
2021/09/19 00:22:39;;;;;;;4.70;2.42;;;15.60;99.90;;;;;;5074543;28;20037;-69
2021/09/19 00:25:06;;;;;;;4.10;2.75;;;15.60;99.90;;;;;;5073409;28;20044;-70
2021/09/19 00:27:32;;;;;;;3.13;2.78;;;15.60;99.90;;;;;;5074712;28;20146;-70
2021/09/19 00:29:57;;;;;;;4.75;2.88;;;15.60;99.90;;;;;;5074372;28;20111;-70
2021/09/19 00:32:23;;;;;;;5.07;3.03;;;15.60;99.90;;;;;;5074555;28;20048;-70
2021/09/19 00:34:49;;;;;;;3.45;3.13;;;15.60;99.90;;;;;;5073099;28;20044;-70
2021/09/19 00:37:14;;;;;;;4.03;2.80;;;15.60;99.90;;;;;;5056639;28;20044;-70
2021/09/19 00:39:40;;;;;;;4.60;3.35;;;15.60;99.90;;;;;;5073760;28;20040;-70
2021/09/19 00:42:05;;;;;;;5.85;2.97;;;15.70;99.90;;;;;;5074557;28;20039;-70
2021/09/19 00:44:31;;;;;;;4.28;3.00;;;15.70;99.90;;;;;;5074119;28;20036;-69
2021/09/19 00:46:56;;;;;;;6.45;3.50;;;15.60;99.90;;;;;;5073126;28;20131;-70
2021/09/19 00:49:23;;;;;;;6.30;2.88;;;15.60;99.90;;;;;;5073769;28;20040;-70
2021/09/19 00:51:49;;;;;;;4.00;3.30;;;15.60;99.90;;;;;;5074135;28;20051;-70
2021/09/19 00:54:16;;;;;;;6.35;4.22;;;15.60;99.90;;;;;;5074524;28;20483;-69
2021/09/19 00:56:45;;;;;;;4.97;3.42;;;15.70;99.90;;;;;;5073948;28;20083;-69
2021/09/19 00:59:11;;;;;;;6.57;4.22;;;15.60;99.90;;;;;;5073494;28;20170;-70
2021/09/19 01:01:38;;;;;;;5.00;4.25;;;15.60;99.90;;;;;;5073805;28;20446;-69
2021/09/19 01:04:04;;;;;;;7.35;4.88;;;15.60;99.90;;;;;;5072458;28;20040;-70
2021/09/19 01:06:30;;;;;;;11.00;5.40;;;15.60;99.90;;;;;;5072395;28;20067;-70
2021/09/19 01:08:56;;;;;;;7.60;6.32;;;15.60;99.90;;;;;;5072445;28;20040;-70
2021/09/19 01:11:22;;;;;;;6.25;5.65;;;15.60;99.90;;;;;;5073727;28;20487;-70
2021/09/19 01:13:49;;;;;;;6.72;5.80;;;15.60;99.90;;;;;;5073640;28;20048;-70
2021/09/19 01:16:16;;;;;;;11.68;6.60;;;15.60;99.90;;;;;;5056129;28;20044;-69
2021/09/19 01:18:44;;;;;;;8.35;6.75;;;15.60;99.90;;;;;;5072256;28;20118;-70
2021/09/19 01:21:11;;;;;;;8.60;7.28;;;15.60;99.90;;;;;;5072193;28;20045;-70
2021/09/19 01:23:38;;;;;;;8.52;7.63;;;15.60;99.90;;;;;;5072218;28;20072;-69
2021/09/19 01:26:04;;;;;;;10.15;7.35;;;15.60;99.90;;;;;;5073635;28;20032;-70
2021/09/19 01:28:33;;;;;;;8.60;7.65;;;15.60;99.90;;;;;;5071913;28;20049;-70
2021/09/19 01:31:00;;;;;;;9.77;7.60;;;15.60;99.90;;;;;;5072316;28;20056;-70
2021/09/19 01:33:26;;;;;;;11.15;8.18;;;15.60;99.90;;;;;;5073709;28;20124;-70
2021/09/19 01:35:51;;;;;;;10.85;7.30;;;15.60;99.90;;;;;;5073595;28;20123;-70
2021/09/19 01:38:22;;;;;;;9.63;8.02;;;15.70;99.90;;;;;;5073430;28;20043;-70
2021/09/19 01:40:48;;;;;;;9.10;7.35;;;15.60;99.90;;;;;;5073199;28;20454;-69
2021/09/19 01:43:13;;;;;;;9.50;7.80;;;15.70;99.90;;;;;;5073657;28;20098;-69
2021/09/19 01:45:40;;;;;;;12.10;7.10;;;15.60;99.90;;;;;;5073445;28;20097;-70
2021/09/19 01:48:06;;;;;;;8.75;7.00;;;15.60;99.90;;;;;;5073072;28;20039;-69
2021/09/19 01:50:32;;;;;;;8.75;6.80;;;15.60;99.90;;;;;;5072954;28;20075;-69
2021/09/19 01:53:02;;;;;;;8.13;6.90;;;15.60;99.90;;;;;;5071791;28;20083;-69
2021/09/19 01:55:28;;;;;;;10.57;6.90;;;15.60;99.90;;;;;;5073499;28;20051;-69
2021/09/19 01:57:54;;;;;;;8.60;6.50;;;15.60;99.90;;;;;;5072250;28;20041;-69
2021/09/19 02:00:22;;;;;;;8.40;7.25;;;15.60;99.90;;;;;;5071603;28;20504;-69
2021/09/19 02:02:48;;;;;;;8.48;7.38;;;15.60;99.90;;;;;;5072920;28;20539;-69
2021/09/19 02:05:13;;;;;;;7.40;6.70;;;15.60;99.90;;;;;;5073383;28;20075;-69
2021/09/19 02:07:39;;;;;;;8.45;6.80;;;15.60;99.90;;;;;;5073156;28;20488;-69
2021/09/19 02:10:09;;;;;;;7.63;6.43;;;15.60;99.90;;;;;;5072098;28;20063;-69
2021/09/19 02:12:35;;;;;;;7.40;5.82;;;15.60;99.90;;;;;;5073662;28;20041;-69
2021/09/19 02:15:01;;;;;;;7.53;4.93;;;15.50;99.90;;;;;;5072998;28;20039;-69
2021/09/19 02:17:27;;;;;;;7.68;5.65;;;15.50;99.90;;;;;;5073116;28;20072;-69
2021/09/19 02:19:52;;;;;;;6.88;5.13;;;15.60;99.90;;;;;;5072763;28;20125;-70
2021/09/19 02:22:18;;;;;;;11.43;5.22;;;15.50;99.90;;;;;;5073116;28;20040;-69
2021/09/19 02:24:44;;;;;;;6.38;5.03;;;15.50;99.90;;;;;;5071633;28;20498;-69
2021/09/19 02:27:09;;;;;;;5.35;4.03;;;15.50;99.90;;;;;;5071821;28;20052;-69
2021/09/19 02:29:35;;;;;;;6.53;4.65;;;15.50;99.90;;;;;;5073546;28;20047;-70
2021/09/19 02:32:00;;;;;;;7.75;4.72;;;15.40;99.90;;;;;;5076793;28;20036;-69
2021/09/19 02:34:26;;;;;;;7.88;4.20;;;15.50;99.90;;;;;;5076713;28;20044;-69
2021/09/19 02:36:52;;;;;;;7.82;4.47;;;15.40;99.90;;;;;;5076887;28;20078;-69
2021/09/19 02:39:18;;;;;;;7.00;4.38;;;15.40;99.90;;;;;;5076152;28;20041;-69
2021/09/19 02:41:44;;;;;;;7.40;4.25;;;15.40;99.90;;;;;;5075134;28;20048;-69
2021/09/19 02:44:09;;;;;;;6.85;4.55;;;15.30;99.90;;;;;;5076699;28;20037;-69
2021/09/19 02:46:35;;;;;;;5.20;4.03;;;15.40;99.90;;;;;;5076286;28;20086;-69
2021/09/19 02:49:01;;;;;;;11.40;4.03;;;15.30;99.90;;;;;;5075156;28;20182;-69
2021/09/19 02:51:26;;;;;;;6.88;3.83;;;15.30;99.90;;;;;;5076348;28;20044;-69
2021/09/19 02:53:52;;;;;;;6.78;4.30;;;15.30;99.90;;;;;;5075318;28;20119;-69
2021/09/19 02:56:17;;;;;;;9.43;3.88;;;15.20;99.90;;;;;;5076392;28;20033;-69
2021/09/19 02:58:43;;;;;;;8.68;3.30;;;15.30;99.90;;;;;;5075798;28;20040;-69
2021/09/19 03:01:08;;;;;;;8.38;4.43;;;15.30;99.90;;;;;;5076109;28;20043;-69
2021/09/19 03:03:34;;;;;;;7.68;3.40;;;15.20;99.90;;;;;;5076072;28;20033;-69
2021/09/19 03:05:59;;;;;;;5.40;3.58;;;15.30;99.90;;;;;;5074820;28;20400;-69
2021/09/19 03:08:25;;;;;;;6.85;4.30;;;15.20;99.90;;;;;;5076396;28;20058;-70
2021/09/19 03:10:51;;;;;;;6.05;3.67;;;15.20;99.90;;;;;;5074726;28;20044;-69
2021/09/19 03:13:16;;;;;;;6.55;3.88;;;15.20;99.90;;;;;;5076358;28;20552;-69
2021/09/19 03:15:43;;;;;;;5.82;3.50;;;15.10;99.90;;;;;;5075822;28;20041;-69
2021/09/19 03:18:08;;;;;;;6.90;4.38;;;15.10;99.90;;;;;;5076033;28;20072;-69
2021/09/19 03:20:34;;;;;;;6.95;4.18;;;15.10;99.90;;;;;;5075366;28;20079;-69
2021/09/19 03:23:00;;;;;;;6.68;3.65;;;15.10;99.90;;;;;;5075919;28;20067;-69
2021/09/19 03:25:26;;;;;;;6.65;3.85;;;15.10;99.90;;;;;;5075855;28;20484;-69
2021/09/19 03:27:52;;;;;;;9.38;4.53;;;15.00;99.90;;;;;;5076247;28;20163;-69
2021/09/19 03:30:18;;;;;;;7.15;3.90;;;15.00;99.90;;;;;;5075294;28;20407;-69
2021/09/19 03:32:45;;;;;;;9.80;4.57;;;15.00;99.90;;;;;;5075427;28;20087;-69
2021/09/19 03:35:12;;;;;;;6.65;4.75;;;15.00;99.90;;;;;;5075649;28;20063;-69
2021/09/19 03:37:39;;;;;;;5.65;4.15;;;14.90;99.90;;;;;;5075571;28;20045;-69
2021/09/19 03:40:06;;;;;;;8.40;4.75;;;15.00;99.90;;;;;;5073232;28;20533;-69
2021/09/19 03:42:32;;;;;;;8.27;4.63;;;14.90;99.90;;;;;;5073751;28;20064;-69
2021/09/19 03:44:58;;;;;;;5.88;4.70;;;14.80;99.90;;;;;;5074277;28;20478;-69
2021/09/19 03:47:24;;;;;;;6.43;4.55;;;14.80;99.90;;;;;;5075423;28;20044;-69
2021/09/19 03:49:49;;;;;;;7.45;4.72;;;14.80;99.90;;;;;;5075244;28;20162;-69
2021/09/19 03:52:15;;;;;;;8.05;4.75;;;14.70;99.90;;;;;;5075237;28;20051;-69
2021/09/19 03:54:40;;;;;;;6.53;4.15;;;14.80;99.90;;;;;;5073830;28;20044;-69
2021/09/19 03:57:06;;;;;;;7.40;4.55;;;14.80;99.90;;;;;;5075155;28;20148;-69
2021/09/19 03:59:31;;;;;;;7.13;4.47;;;14.70;99.90;;;;;;5074544;28;20041;-69
2021/09/19 04:01:57;;;;;;;6.03;4.57;;;14.70;99.90;;;;;;5075255;28;20048;-69
2021/09/19 04:04:23;;;;;;;7.03;4.13;;;14.60;99.90;;;;;;5075015;28;20396;-69
2021/09/19 04:06:48;;;;;;;7.28;4.07;;;14.60;99.90;;;;;;5073506;28;20040;-69
2021/09/19 04:09:14;;;;;;;9.32;4.68;;;14.60;99.90;;;;;;5074578;28;20094;-69
2021/09/19 04:11:39;;;;;;;7.32;4.45;;;14.50;99.90;;;;;;5074659;28;20523;-69
2021/09/19 04:14:05;;;;;;;6.95;4.28;;;14.50;99.90;;;;;;5074055;28;20404;-70
2021/09/19 04:16:31;;;;;;;8.07;4.32;;;14.60;99.90;;;;;;5075163;28;20086;-68
2021/09/19 04:18:56;;;;;;;5.55;3.88;;;14.50;99.90;;;;;;5074439;28;20119;-69
2021/09/19 04:21:22;;;;;;;8.90;3.83;;;14.50;99.90;;;;;;5073457;28;20041;-69
2021/09/19 04:23:47;;;;;;;6.85;4.57;;;14.50;99.90;;;;;;5074917;28;20043;-69
2021/09/19 04:26:13;;;;;;;8.40;4.63;;;14.40;99.90;;;;;;5073950;28;20056;-69
2021/09/19 04:28:38;;;;;;;10.32;4.45;;;14.30;99.90;;;;;;5074261;28;20193;-69
2021/09/19 04:31:04;;;;;;;5.82;3.67;;;14.20;99.90;;;;;;5074665;28;20375;-68
2021/09/19 04:33:29;;;;;;;8.00;4.60;;;14.30;99.90;;;;;;5074294;28;20137;-68
2021/09/19 04:35:55;;;;;;;5.82;4.15;;;14.10;99.90;;;;;;5074244;28;20040;-69
2021/09/19 04:38:21;;;;;;;7.55;4.25;;;14.10;99.90;;;;;;5074585;28;20083;-69
2021/09/19 04:40:46;;;;;;;7.55;4.32;;;14.00;99.90;;;;;;5073164;28;20042;-69
2021/09/19 04:43:13;;;;;;;5.82;4.18;;;14.10;99.90;;;;;;5074764;28;20055;-68
2021/09/19 04:45:41;;;;;;;6.03;3.90;;;14.00;99.90;;;;;;5074057;28;20435;-68
2021/09/19 04:48:07;;;;;;;7.60;4.25;;;14.00;99.90;;;;;;5074437;28;20029;-68
2021/09/19 04:50:33;;;;;;;9.02;4.30;;;13.90;99.90;;;;;;5073901;28;20067;-69
2021/09/19 04:52:59;;;;;;;7.18;4.18;;;13.80;99.90;;;;;;5073597;28;20044;-69
2021/09/19 04:55:25;;;;;;;10.48;4.07;;;13.80;99.90;;;;;;5073960;28;20097;-69
2021/09/19 04:57:50;;;;;;;6.78;4.10;;;13.80;99.90;;;;;;5072811;28;20083;-69
2021/09/19 05:00:16;;;;;;;6.82;3.72;;;13.80;99.90;;;;;;5073454;28;20131;-69
2021/09/19 05:02:42;;;;;;;6.68;3.70;;;13.80;99.90;;;;;;5073882;28;20040;-69
2021/09/19 05:05:08;;;;;;;7.60;4.82;;;13.70;99.90;;;;;;5074019;28;20411;-69
2021/09/19 05:07:33;;;;;;;8.60;4.47;;;13.70;99.90;;;;;;5073790;28;20115;-69
2021/09/19 05:09:59;;;;;;;7.63;3.90;;;13.70;99.90;;;;;;5072287;28;20131;-69
2021/09/19 05:12:24;;;;;;;6.68;4.43;;;13.60;99.90;;;;;;5073558;28;20480;-68
2021/09/19 05:14:53;;;;;;;7.57;4.35;;;13.60;99.90;;;;;;5072687;28;20048;-69
2021/09/19 05:17:19;;;;;;;5.32;3.78;;;13.60;99.90;;;;;;5073792;28;20044;-69
2021/09/19 05:19:44;;;;;;;7.05;4.13;;;13.60;99.90;;;;;;5072181;28;20045;-70
2021/09/19 05:22:10;;;;;;;7.47;4.28;;;13.60;99.90;;;;;;5072383;28;20044;-69
2021/09/19 05:24:36;;;;;;;7.22;3.90;;;13.60;99.90;;;;;;5073761;28;20028;-69
2021/09/19 05:27:02;;;;;;;9.15;4.03;;;13.60;99.90;;;;;;5073447;28;20040;-69
2021/09/19 05:29:27;;;;;;;8.27;4.30;;;13.50;99.90;;;;;;5072662;28;20404;-69
2021/09/19 05:31:53;;;;;;;6.80;4.10;;;13.50;99.90;;;;;;5072344;28;20047;-69
2021/09/19 05:34:18;;;;;;;8.93;4.95;;;13.60;99.90;;;;;;5073572;28;20392;-69
2021/09/19 05:36:44;;;;;;;7.93;4.30;;;13.60;99.90;;;;;;5073310;28;20047;-69
2021/09/19 05:39:10;;;;;;;6.45;4.43;;;13.50;99.90;;;;;;5072872;28;20049;-69
2021/09/19 05:41:35;;;;;;;6.60;4.05;;;13.50;99.90;;;;;;5073004;28;20033;-69
2021/09/19 05:44:01;;;;;;;9.68;4.88;;;13.50;99.90;;;;;;5073336;28;20525;-69
2021/09/19 05:46:26;;;;;;;8.13;4.47;;;13.50;99.90;;;;;;5073583;28;20033;-68
2021/09/19 05:48:52;;;;;;;7.07;4.05;;;13.50;99.90;;;;;;5071904;28;20048;-69
2021/09/19 05:51:21;;;;;;;9.35;4.93;;;13.40;99.90;;;;;;5073128;28;20505;-69
2021/09/19 05:53:47;;;;;;;11.25;4.75;;;13.40;99.90;;;;;;5072472;28;20047;-69
2021/09/19 05:56:12;;;;;;;7.25;4.63;;;13.40;99.90;;;;;;5071977;28;20048;-68
2021/09/19 05:58:38;;;;;;;9.35;4.78;;;13.40;99.90;;;;;;5072943;28;20048;-69
2021/09/19 06:01:03;;;;;;;10.60;4.90;;;13.40;99.90;;;;;;5073173;28;20488;-69
2021/09/19 06:03:29;;;;;;;8.02;4.30;;;13.40;99.90;;;;;;5072393;28;20051;-69
2021/09/19 06:05:55;;;;;;;9.75;4.93;;;13.40;99.90;;;;;;5077567;28;20033;-69
2021/09/19 06:08:21;;;;;;;8.98;4.43;;;13.30;99.90;;;;;;5076374;28;20040;-68
2021/09/19 06:10:46;;;;;;;8.70;4.85;;;13.40;99.90;;;;;;5077022;28;20072;-68
2021/09/19 06:13:12;;;;;;;6.75;4.50;;;13.40;99.90;;;;;;5077327;28;20033;-68
2021/09/19 06:15:38;;;;;;;9.68;5.05;;;13.40;99.90;;;;;;5076936;28;20078;-68
2021/09/19 06:18:03;;;;;;;8.35;4.40;;;13.40;99.90;;;;;;5075841;28;20037;-68
2021/09/19 06:20:29;;;;;;;15.07;5.45;;;13.40;99.90;;;;;;5076620;28;20059;-68
2021/09/19 06:22:54;;;;;;;8.85;5.25;;;13.50;99.90;;;;;;5077173;28;20549;-68
2021/09/19 06:25:20;;;;;;;10.80;4.88;;;13.50;99.90;;;;;;5076820;28;20452;-68
2021/09/19 06:27:46;;;;;;;9.15;5.53;;;13.50;99.90;;;;;;5076882;28;20032;-68
2021/09/19 06:30:12;;;;;;;10.25;5.85;;;13.50;99.90;;;;;;5076533;28;20113;-68
2021/09/19 06:32:37;;;;;;;9.73;5.03;;;13.60;99.90;;;;;;5076822;28;20037;-68
2021/09/19 06:35:03;;;;;;;9.75;4.95;;;13.60;99.90;;;;;;5075745;28;20052;-68
2021/09/19 06:37:29;;;;;;;8.38;5.20;;;13.60;99.90;;;;;;5076669;28;20043;-68
2021/09/19 06:39:55;;;;;;;11.35;5.18;;;13.80;99.90;;;;;;5076155;28;20040;-68
2021/09/19 06:42:20;;;;;;;7.78;4.70;;;13.80;99.90;;;;;;5075517;28;20380;-68
2021/09/19 06:44:46;;;;;;;8.57;4.28;;;13.80;99.90;;;;;;5075098;28;20472;-68
2021/09/19 06:47:11;;;;;;;7.80;5.32;;;13.80;99.90;;;;;;5076736;28;20047;-68
2021/09/19 06:49:37;;;;;;;7.70;5.10;;;13.90;99.90;;;;;;5076152;28;20043;-68
2021/09/19 06:52:03;;;;;;;8.40;4.80;;;13.90;99.90;;;;;;5075343;28;20078;-68
2021/09/19 06:54:28;;;;;;;8.85;4.90;;;13.90;99.90;;;;;;5076143;28;20078;-68
2021/09/19 06:56:54;;;;;;;8.32;5.50;;;13.90;99.90;;;;;;5076337;28;20032;-68
2021/09/19 06:59:19;;;;;;;6.75;5.05;;;13.90;99.90;;;;;;5076116;28;20511;-68
2021/09/19 07:01:45;;;;;;;9.48;4.78;;;13.80;99.90;;;;;;5075995;28;20047;-68
2021/09/19 07:04:11;;;;;;;11.95;5.43;;;13.90;99.90;;;;;;5076359;28;20115;-68
2021/09/19 07:06:37;;;;;;;8.73;5.28;;;14.00;99.90;;;;;;5076129;28;20036;-68
2021/09/19 07:09:02;;;;;;;8.95;5.72;;;14.10;99.90;;;;;;5074451;28;20126;-68
2021/09/19 07:11:28;;;;;;;9.10;4.82;;;14.10;99.90;;;;;;5074590;28;20044;-68
2021/09/19 07:13:54;;;;;;;7.78;4.43;;;14.20;99.90;;;;;;5075902;28;20047;-68
2021/09/19 07:16:19;;;;;;;8.15;5.03;;;14.20;99.90;;;;;;5075879;28;20088;-68
2021/09/19 07:18:45;;;;;;;8.70;5.22;;;14.20;99.90;;;;;;5075523;28;20041;-68
2021/09/19 07:21:10;;;;;;;9.57;5.13;;;14.20;99.90;;;;;;5075615;28;20177;-68
2021/09/19 07:23:36;;;;;;;9.20;5.25;;;14.30;99.90;;;;;;5076572;28;20032;-68
2021/09/19 07:26:02;;;;;;;8.57;5.80;;;14.40;99.90;;;;;;5075514;28;20043;-69
2021/09/19 07:28:28;;;;;;;10.88;5.63;;;14.50;99.90;;;;;;5075748;28;20411;-68
2021/09/19 07:30:57;;;;;;;7.30;4.93;;;14.60;99.90;;;;;;5074325;28;20101;-68
2021/09/19 07:33:23;;;;;;;5.88;4.53;;;14.70;99.90;;;;;;5075705;28;20123;-68
2021/09/19 07:35:50;;;;;;;8.50;5.00;;;14.80;99.90;;;;;;5075738;28;20128;-68
2021/09/19 07:38:17;;;;;;;9.70;5.22;;;14.90;99.90;;;;;;5075343;28;20083;-68
2021/09/19 07:40:43;;;;;;;10.52;5.70;;;14.90;99.90;;;;;;5073786;28;20083;-68
2021/09/19 07:43:09;;;;;;;10.68;5.32;;;14.90;99.90;;;;;;5075202;28;20395;-68
2021/09/19 07:45:35;;;;;;;7.88;4.93;;;15.10;99.90;;;;;;5075279;28;20111;-68
2021/09/19 07:48:03;;;;;;;6.95;5.35;;;15.40;99.90;;;;;;5075629;28;20075;-68
2021/09/19 07:50:28;;;;;;;6.75;5.00;;;15.60;99.90;;;;;;5075174;28;20523;-68
2021/09/19 07:52:54;;;;;;;8.13;5.07;;;15.60;99.90;;;;;;5075180;28;20087;-68
2021/09/19 07:55:20;;;;;;;7.65;4.55;;;15.70;99.90;;;;;;5073892;28;20066;-68
2021/09/19 07:57:46;;;;;;;9.20;4.53;;;15.60;99.90;;;;;;5074549;28;20055;-68
2021/09/19 08:00:12;;;;;;;9.45;5.53;;;15.50;99.90;;;;;;5073692;28;20045;-68
2021/09/19 08:02:39;;;;;;;9.10;5.20;;;15.40;99.90;;;;;;5074797;28;20068;-70
2021/09/19 08:05:05;;;;;;;17.45;6.03;;;15.50;99.90;;;;;;5073782;28;20040;-69
2021/09/19 08:07:30;;;;;;;8.77;4.97;;;15.40;99.90;;;;;;5074879;28;20040;-69
2021/09/19 08:09:56;;;;;;;10.80;5.35;;;15.60;99.90;;;;;;5075035;28;20042;-70
2021/09/19 08:12:22;;;;;;;7.20;5.18;;;15.70;99.90;;;;;;5074999;28;20094;-70
2021/09/19 08:14:47;;;;;;;7.20;5.22;;;15.60;99.90;;;;;;5074705;28;20130;-70
2021/09/19 08:17:13;;;;;;;10.55;5.15;;;15.60;99.90;;;;;;5075090;28;20131;-70
2021/09/19 08:19:38;;;;;;;7.57;5.13;;;15.50;99.90;;;;;;5073051;28;20044;-71
2021/09/19 08:22:04;;;;;;;7.55;5.03;;;15.40;99.90;;;;;;5074590;28;20043;-70
2021/09/19 08:24:30;;;;;;;7.70;5.35;;;15.40;99.90;;;;;;5074639;28;20039;-71
2021/09/19 08:26:55;;;;;;;7.57;5.07;;;15.50;99.90;;;;;;5072969;28;20048;-70
2021/09/19 08:29:22;;;;;;;9.30;4.93;;;15.50;99.90;;;;;;5074256;28;20048;-70
2021/09/19 08:31:48;;;;;;;7.72;4.97;;;15.60;99.90;;;;;;5073756;28;20048;-70
2021/09/19 08:34:14;;;;;;;9.07;5.57;;;15.70;99.90;;;;;;5074730;28;20398;-70
2021/09/19 08:36:39;;;;;;;7.88;5.38;;;15.80;99.90;;;;;;5073356;28;20041;-70
2021/09/19 08:39:07;;;;;;;7.57;4.82;;;15.90;99.90;;;;;;5073882;28;20036;-69
2021/09/19 08:41:33;;;;;;;9.32;6.15;;;16.00;99.90;;;;;;5074210;28;20093;-70
2021/09/19 08:43:59;;;;;;;6.78;5.45;;;16.10;99.90;;;;;;5074514;28;20043;-70
2021/09/19 08:46:25;;;;;;;8.75;5.22;;;16.10;99.90;;;;;;5074373;28;20033;-70
2021/09/19 08:48:51;;;;;;;8.93;5.57;;;16.20;99.90;;;;;;5073827;28;20037;-70
2021/09/19 08:51:18;;;;;;;9.88;5.50;;;16.30;99.90;;;;;;5073998;28;20051;-70
2021/09/19 08:53:44;;;;;;;9.82;5.93;;;16.60;99.90;;;;;;5074249;28;20033;-70
2021/09/19 08:56:10;;;;;;;8.20;5.65;;;16.60;99.90;;;;;;5072523;28;20087;-71
2021/09/19 08:58:37;;;;;;;7.78;5.13;;;16.60;99.90;;;;;;5073798;28;20036;-70
2021/09/19 09:01:04;;;;;;;9.30;5.35;;;16.70;99.90;;;;;;5072379;28;20120;-69
2021/09/19 09:03:30;;;;;;;6.60;5.13;;;16.90;99.90;;;;;;5073357;28;20091;-70
2021/09/19 09:05:57;;;;;;;9.00;5.07;;;17.00;99.90;;;;;;5072549;28;20041;-69
2021/09/19 09:08:25;;;;;;;9.15;5.50;;;16.90;99.90;;;;;;5073940;28;20043;-70
2021/09/19 09:10:52;;;;;;;6.47;4.97;;;16.90;99.90;;;;;;5073361;28;20044;-69
2021/09/19 09:13:24;;;;;;;8.02;4.97;;;16.90;99.90;;;;;;5074134;28;20094;-69
2021/09/19 09:16:04;;;;;;;8.35;5.22;;;16.80;99.90;;;;;;5072738;28;20044;-68
2021/09/19 09:18:52;;;;;;;10.32;5.38;;;16.80;99.90;;;;;;5073508;28;20075;-70
2021/09/19 09:21:25;;;;;;;8.27;5.32;;;16.90;99.90;;;;;;5073603;28;20045;-68
2021/09/19 09:23:54;;;;;;;10.05;5.05;;;17.00;99.90;;;;;;5072583;28;20137;-71
2021/09/19 09:26:32;;;;;;;7.68;5.38;;;17.10;99.90;;;;;;5072123;28;20090;-67
2021/09/19 09:29:07;;;;;;;10.93;5.70;;;17.10;99.90;;;;;;5071878;28;20036;-69
2021/09/19 09:31:34;;;;;;;7.97;5.68;;;17.20;99.90;;;;;;5055692;28;20044;-69
2021/09/19 09:34:14;;;;;;;9.05;5.15;;;17.20;99.90;;;;;;5073649;28;20432;-69
2021/09/19 09:36:50;;;;;;;7.35;5.18;;;17.20;99.90;;;;;;5072269;28;20492;-69
2021/09/19 09:39:25;;;;;;;5.95;4.70;;;17.30;99.90;;;;;;5072038;28;20461;-69
2021/09/19 09:41:54;;;;;;;5.53;4.63;;;17.40;99.90;;;;;;5072094;28;20044;-69
2021/09/19 09:44:43;;;;;;;6.82;4.38;;;17.40;99.90;;;;;;5073522;28;20040;-69
2021/09/19 09:47:13;;;;;;;6.45;4.70;;;17.40;99.90;;;;;;5073323;28;20365;-67
2021/09/19 09:49:50;;;;;;;8.75;4.75;;;17.40;99.90;;;;;;5072655;28;20388;-70
2021/09/19 09:52:16;;;;;;;7.15;4.85;;;17.50;99.90;;;;;;5073120;28;20511;-70
2021/09/19 09:54:59;;;;;;;8.23;4.82;;;17.50;99.90;;;;;;5073576;28;20051;-69
2021/09/19 09:57:37;;;;;;;7.97;5.45;;;17.40;99.90;;;;;;5071881;28;20404;-69
2021/09/19 10:00:06;;;;;;;6.75;4.32;;;17.40;99.90;;;;;;5071620;28;20388;-69
2021/09/19 10:02:33;;;;;;;8.73;5.30;;;17.40;99.90;;;;;;5073032;28;20045;-70
2021/09/19 10:05:00;;;;;;;7.55;5.05;;;17.50;99.90;;;;;;5073433;28;20451;-69
2021/09/19 10:07:26;;;;;;;7.85;4.50;;;17.60;99.90;;;;;;5071955;28;20059;-70
2021/09/19 10:09:52;;;;;;;8.18;4.88;;;17.60;99.90;;;;;;5073002;28;20067;-70
2021/09/19 10:12:20;;;;;;;9.13;4.85;;;17.70;99.90;;;;;;5073393;28;20049;-69
2021/09/19 10:14:50;;;;;;;8.18;5.38;;;17.60;99.90;;;;;;5071861;28;20067;-69
2021/09/19 10:17:22;;;;;;;11.18;5.32;;;17.60;99.90;;;;;;5073539;28;20039;-70
2021/09/19 10:19:50;;;;;;;8.90;5.03;;;17.60;99.90;;;;;;5072713;28;20052;-69
2021/09/19 10:22:26;;;;;;;10.00;5.55;;;17.60;99.90;;;;;;5072970;28;20036;-69
2021/09/19 10:24:52;;;;;;;7.57;4.85;;;17.70;99.90;;;;;;5072804;28;20044;-70
2021/09/19 10:27:24;;;;;;;6.75;5.28;;;17.70;99.90;;;;;;5072891;28;20527;-70
2021/09/19 10:30:06;;;;;;;9.13;5.25;;;17.80;99.90;;;;;;5071350;28;20124;-69
2021/09/19 10:32:33;;;;;;;8.73;5.70;;;17.70;99.90;;;;;;5073452;28;20040;-69
2021/09/19 10:34:59;;;;;;;10.13;6.22;;;17.70;99.90;;;;;;5072865;28;20048;-69
2021/09/19 10:37:48;;;;;;;7.72;5.50;;;17.70;99.90;;;;;;5072648;28;20047;-70
2021/09/19 10:40:28;;;;;;;7.43;5.70;;;17.80;99.90;;;;;;5072256;28;20048;-69
2021/09/19 10:42:54;;;;;;;7.55;5.80;;;17.70;99.90;;;;;;5073400;28;20040;-70
2021/09/19 10:45:20;;;;;;;7.20;6.05;;;17.70;99.90;;;;;;5072993;28;20113;-70
2021/09/19 10:47:58;;;;;;;7.95;6.10;;;17.70;99.90;;;;;;5073223;28;20115;-69
2021/09/19 10:50:37;;;;;;;7.00;5.13;;;17.80;99.90;;;;;;5074156;28;20384;-70
2021/09/19 10:53:04;;;;;;;9.77;6.57;;;17.80;99.90;;;;;;5076478;28;20124;-71
2021/09/19 10:55:57;;;;;;;7.43;5.85;;;17.70;99.90;;;;;;5076435;28;20044;-70
2021/09/19 10:58:28;;;;;;;8.07;5.85;;;17.70;99.90;;;;;;5075043;28;20036;-70
2021/09/19 11:01:13;;;;;;;8.48;5.47;;;17.70;99.90;;;;;;5074784;28;20511;-69
2021/09/19 11:03:43;;;;;;;9.55;6.15;;;17.60;99.90;;;;;;5074861;28;20123;-70
2021/09/19 11:06:27;;;;;;;7.03;5.57;;;17.80;99.90;;;;;;5076149;28;20043;-70
2021/09/19 11:08:53;;;;;;;6.28;4.97;;;17.70;99.90;;;;;;5076379;28;20040;-70
2021/09/19 11:11:22;;;;;;;11.00;5.82;;;17.70;99.90;;;;;;5074988;28;20503;-70
2021/09/19 11:13:55;;;;;;;9.93;5.07;;;17.70;99.90;;;;;;5076603;28;20048;-70
2021/09/19 11:16:31;;;;;;;7.95;5.53;;;17.60;99.90;;;;;;5076118;28;20119;-70
2021/09/19 11:19:02;;;;;;;8.40;5.13;;;17.60;99.90;;;;;;5076015;28;20119;-70
2021/09/19 11:21:38;;;;;;;8.38;4.90;;;17.60;99.90;;;;;;5075806;28;20040;-70
2021/09/19 11:24:09;;;;;;;9.23;4.72;;;17.60;99.90;;;;;;5076198;28;20047;-70
2021/09/19 11:26:38;;;;;;;5.25;4.75;;;17.70;99.90;;;;;;5075759;28;20044;-70
2021/09/19 11:29:16;;;;;;;7.28;4.68;;;17.70;99.90;;;;;;5075442;28;20396;-69
2021/09/19 11:31:44;;;;;;;8.02;5.50;;;17.90;99.90;;;;;;5074347;28;20049;-70
2021/09/19 11:34:13;;;;;;;7.72;4.68;;;17.80;99.90;;;;;;5075693;28;20444;-70
2021/09/19 11:36:51;;;;;;;6.95;5.13;;;17.80;99.90;;;;;;5075897;28;20033;-70
2021/09/19 11:39:17;;;;;;;6.53;4.90;;;17.80;99.90;;;;;;5075359;28;20047;-70
2021/09/19 11:41:44;;;;;;;6.88;4.93;;;17.80;99.90;;;;;;5074041;28;20071;-71
2021/09/19 11:44:12;;;;;;;8.65;5.00;;;17.80;99.90;;;;;;5075875;28;20115;-71
2021/09/19 11:46:42;;;;;;;5.80;4.55;;;17.80;99.90;;;;;;5075578;28;20464;-68
2021/09/19 11:49:08;;;;;;;6.93;4.28;;;17.60;99.90;;;;;;5075133;28;20067;-70
2021/09/19 11:51:33;;;;;;;6.00;4.28;;;17.60;99.90;;;;;;5075063;28;20524;-70
2021/09/19 11:53:59;;;;;;;6.18;4.10;;;17.70;99.90;;;;;;5075696;28;20090;-70
2021/09/19 11:56:26;;;;;;;7.65;4.25;;;17.70;99.90;;;;;;5075042;28;20119;-70
2021/09/19 11:58:53;;;;;;;6.40;4.65;;;17.70;99.90;;;;;;5073523;28;20044;-69
2021/09/19 12:01:23;;;;;;;7.93;4.50;;;17.90;99.90;;;;;;5073096;28;20091;-70
2021/09/19 12:03:49;;;;;;;9.60;4.78;;;17.80;99.90;;;;;;5073760;28;20087;-70
2021/09/19 12:06:15;;;;;;;5.45;4.00;;;17.80;99.90;;;;;;5074947;28;20075;-70
2021/09/19 12:08:43;;;;;;;5.63;3.83;;;17.70;99.90;;;;;;5074596;28;20037;-71
2021/09/19 12:11:09;;;;;;;6.45;4.28;;;17.80;99.90;;;;;;5073731;28;20052;-70
2021/09/19 12:13:37;;;;;;;6.40;3.55;;;17.80;99.90;;;;;;5073548;28;20044;-70
2021/09/19 12:16:15;;;;;;;8.05;3.22;;;18.00;99.90;;;;;;5073511;28;20040;-69
2021/09/19 12:18:46;;;;;;;8.88;3.50;;;18.10;99.70;;;;;;5073370;28;20052;-70
2021/09/19 12:21:15;;;;;;;6.53;3.70;;;18.10;99.40;;;;;;5073335;28;20049;-70
2021/09/19 12:23:43;;;;;;;4.68;3.65;;;18.10;98.70;;;;;;5075490;28;20089;-70
2021/09/19 12:26:16;;;;;;;6.30;4.03;;;18.00;98.50;;;;;;5074840;28;20037;-70
2021/09/19 12:28:43;;;;;;;5.97;4.10;;;18.00;98.40;;;;;;5073095;28;20464;-70
2021/09/19 12:31:12;;;;;;;5.30;3.90;;;17.90;99.00;;;;;;5074768;28;20040;-70
2021/09/19 12:33:52;;;;;;;6.50;3.72;;;18.00;98.80;;;;;;5074600;28;20040;-70
2021/09/19 12:36:18;;;;;;;6.93;3.47;;;17.90;98.50;;;;;;5073721;28;20051;-69
2021/09/19 12:38:45;;;;;;;7.20;3.97;;;17.90;99.20;;;;;;5074002;28;20044;-69
2021/09/19 12:41:12;;;;;;;5.85;4.13;;;17.90;99.40;;;;;;5074472;28;20386;-69
2021/09/19 12:43:44;;;;;;;6.28;4.00;;;18.00;99.30;;;;;;5074256;28;20036;-70
2021/09/19 12:46:13;;;;;;;5.25;3.13;;;18.10;98.60;;;;;;5072960;28;20519;-70